KLEW

Auburn / Lewiston Municipal Airport

Auburn/Lewiston, Maine, USA
METAR KLEW 220956Z AUTO 00000KT 10SM CLR 09/08 A3018 RMK AO2 SLP234 T00940078
Observed Flight Rules
May-22 @ 09:56 UTC (5 minutes ago) Visual Flight Rules
Visibility Clouds
10 miles
  • Clear skies
Temperatures Readings
Current 9°C / 48°F
Dewpoint 8°C / 46°F
Humidity 94%
Altimeter 30.18" Hg
Pressure 1023.4 hPa
Elevation 88
METAR KLEW 220956Z AUTO 00000KT 10SM CLR 09/08 A3018 RMK AO2 SLP234 T00940078
Observed Flight Rules
May-22 @ 09:56 UTC
(5 minutes ago)
VFR
Clouds
  • Clear skies
Temperature Dewpoint
9°C / 48°F 8°C / 46°F
Humidity Altimeter Pressure
94% 30.18" Hg 1023.4 hPa